Time;durP1;ratioP1;P1;durP2;ratioP2;P2;SDS_P1;SDS_P2;PMS_P1;PMS_P2;Temp;Humidity;BMP_temperature;BMP_pressure;BME280_temperature;BME280_humidity;BME280_pressure;Samples;Min_cycle;Max_cycle;Signal;HPM_P1;HPM_P2
2022/10/19 00:03:08;;;;;;;;;;;14.80;99.90;;;14.22;100.00;96623.03;10513011;28;1576;-74
2022/10/19 00:08:11;;;;;;;;;;;14.80;99.90;;;14.26;100.00;96627.63;10535592;28;1211;-74
2022/10/19 00:13:14;;;;;;;;;;;14.80;99.90;;;14.33;100.00;96625.44;10528908;28;1914;-75
2022/10/19 00:18:16;;;;;;;;;;;14.90;99.90;;;14.31;100.00;96633.03;10534651;28;1163;-75
2022/10/19 00:23:19;;;;;;;;;;;14.90;99.90;;;14.38;100.00;96627.31;10538179;28;1679;-76
2022/10/19 00:28:23;;;;;;;;;;;15.00;99.90;;;14.38;100.00;96632.72;10521845;28;1910;-77
2022/10/19 00:33:26;;;;;;;;;;;15.00;99.90;;;14.38;100.00;96638.13;10516768;28;1687;-74
2022/10/19 00:38:29;;;;;;;;;;;15.00;99.90;;;14.45;100.00;96627.00;10543999;28;1316;-73
2022/10/19 00:43:32;;;;;;;;;;;15.10;99.90;;;14.49;100.00;96618.06;10536113;28;1668;-75
2022/10/19 00:48:35;;;;;;;;;;;15.10;99.90;;;14.50;100.00;96619.69;10542437;28;1914;-73
2022/10/19 00:53:39;;;;;;;;;;;15.10;99.90;;;14.39;100.00;96620.81;10540761;28;1754;-76
2022/10/19 00:58:41;;;;;;;;;;;15.20;99.90;;;14.25;100.00;96611.66;10531698;28;1636;-74
2022/10/19 01:03:44;;;;;;;;;;;15.00;99.90;;;14.20;100.00;96620.59;10507877;28;1521;-75
2022/10/19 01:08:47;;;;;;;;;;;15.00;99.90;;;14.24;100.00;96618.16;10536365;28;1968;-73
2022/10/19 01:13:50;;;;;;;;;;;15.00;99.90;;;14.23;100.00;96620.03;10536018;28;1765;-72
2022/10/19 01:18:53;;;;;;;;;;;15.00;99.90;;;14.16;100.00;96613.31;10539999;28;1179;-72
2022/10/19 01:23:56;;;;;;;;;;;14.90;99.90;;;14.23;100.00;96605.72;10536466;28;1699;-73
2022/10/19 01:28:58;;;;;;;;;;;14.90;99.90;;;14.24;100.00;96604.63;10514761;28;1969;-77
2022/10/19 01:34:01;;;;;;;;;;;14.90;99.90;;;14.27;100.00;96598.69;10514406;28;1687;-75
2022/10/19 01:39:04;;;;;;;;;;;15.00;99.90;;;14.10;100.00;96592.78;10539302;28;1513;-76
2022/10/19 01:44:07;;;;;;;;;;;14.90;99.90;;;14.11;100.00;96594.41;10537573;28;1616;-73
2022/10/19 01:49:10;;;;;;;;;;;14.90;99.90;;;14.12;100.00;96601.41;10539663;28;1909;-74
2022/10/19 01:54:13;;;;;;;;;;;14.90;99.90;;;14.05;100.00;96594.41;10537338;28;1616;-73
2022/10/19 01:59:15;;;;;;;;;;;14.80;99.90;;;13.91;100.00;96596.09;10533673;28;1149;-74
2022/10/19 02:04:19;;;;;;;;;;;14.70;99.90;;;13.98;100.00;96596.59;10520478;28;1459;-73
2022/10/19 02:09:22;;;;;;;;;;;14.80;99.90;;;13.96;100.00;96600.69;10538269;28;1909;-74
2022/10/19 02:14:24;;;;;;;;;;;14.70;99.90;;;14.03;100.00;96599.28;10531547;28;1557;-73
2022/10/19 02:19:27;;;;;;;;;;;14.70;99.90;;;14.01;100.00;96600.66;10537392;28;1002;-73
2022/10/19 02:24:30;;;;;;;;;;;14.70;99.90;;;13.93;100.00;96593.09;10527170;28;1616;-74
2022/10/19 02:29:33;;;;;;;;;;;14.70;99.90;;;13.74;100.00;96584.78;10510847;28;1975;-74
2022/10/19 02:34:36;;;;;;;;;;;14.60;99.90;;;13.67;100.00;96589.66;10512700;28;1513;-73
2022/10/19 02:39:38;;;;;;;;;;;14.60;99.90;;;13.70;100.00;96589.13;10538500;28;1191;-79
2022/10/19 02:44:41;;;;;;;;;;;14.60;99.90;;;13.77;100.00;96568.03;10532026;28;1636;-79
2022/10/19 02:49:44;;;;;;;;;;;14.50;99.90;;;13.64;100.00;96574.00;10535412;28;1906;-74
2022/10/19 02:54:53;;;;;;;;;;;14.40;99.90;;;13.66;100.00;96583.44;10529654;28;1679;-73
2022/10/19 02:59:56;;;;;;;;;;;14.40;99.90;;;13.67;100.00;96578.84;10524507;28;1132;-75
2022/10/19 03:04:58;;;;;;;;;;;14.50;99.90;;;13.80;100.00;96583.69;10523359;28;1643;-74
2022/10/19 03:10:01;;;;;;;;;;;14.50;99.90;;;13.72;100.00;96574.25;10537004;28;1975;-74
2022/10/19 03:15:04;;;;;;;;;;;14.50;99.90;;;13.65;100.00;96581.03;10535422;28;1624;-73
2022/10/19 03:20:07;;;;;;;;;;;14.50;99.90;;;13.65;100.00;96567.50;10527651;28;1738;-74
2022/10/19 03:25:10;;;;;;;;;;;14.40;99.90;;;13.65;100.00;96564.81;10533757;28;1529;-73
2022/10/19 03:30:12;;;;;;;;;;;14.40;99.90;;;13.74;100.00;96563.16;10507676;28;1894;-74
2022/10/19 03:35:16;;;;;;;;;;;14.50;99.90;;;13.63;100.00;96561.59;10522415;28;1742;-74
2022/10/19 03:40:19;;;;;;;;;;;14.40;99.90;;;13.61;100.00;96559.13;10536645;28;1005;-74
2022/10/19 03:45:22;;;;;;;;;;;14.40;99.90;;;13.75;100.00;96545.88;10529036;28;1732;-73
2022/10/19 03:50:28;;;;;;;;;;;14.40;99.90;;;13.87;100.00;96540.16;10533577;28;1902;-75
2022/10/19 03:55:30;;;;;;;;;;;14.50;99.90;;;13.91;100.00;96550.13;10532315;28;1501;-73
2022/10/19 04:00:33;;;;;;;;;;;14.60;99.90;;;13.94;100.00;96540.69;10520421;28;1205;-74
2022/10/19 04:05:36;;;;;;;;;;;14.70;99.90;;;14.02;100.00;96540.09;10511965;28;1791;-74
2022/10/19 04:10:39;;;;;;;;;;;14.70;99.90;;;14.14;100.00;96535.19;10535200;28;1911;-74
2022/10/19 04:15:42;;;;;;;;;;;14.70;99.90;;;13.95;100.00;96526.09;10532927;28;1668;-73
2022/10/19 04:20:44;;;;;;;;;;;14.80;99.90;;;14.02;100.00;96540.09;10533795;28;1573;-73
2022/10/19 04:25:47;;;;;;;;;;;14.70;99.90;;;14.04;100.00;96541.44;10531050;28;1461;-73
2022/10/19 04:30:51;;;;;;;;;;;14.70;99.90;;;14.09;100.00;96542.50;10496823;28;2006;-72
2022/10/19 04:35:53;;;;;;;;;;;14.70;99.90;;;14.17;100.00;96531.91;10517937;28;1426;-73
2022/10/19 04:40:56;;;;;;;;;;;14.80;99.90;;;14.04;100.00;96524.41;10532244;28;1652;-73
2022/10/19 04:45:59;;;;;;;;;;;14.80;99.90;;;13.86;100.00;96516.91;10534852;28;1074;-74
2022/10/19 04:51:02;;;;;;;;;;;14.80;99.90;;;13.88;100.00;96526.38;10532532;28;1914;-73
2022/10/19 04:56:05;;;;;;;;;;;14.70;99.90;;;13.84;100.00;96514.50;10528906;28;1477;-73
2022/10/19 05:01:08;;;;;;;;;;;14.70;99.90;;;13.85;100.00;96524.22;10522293;28;1373;-73
2022/10/19 05:06:11;;;;;;;;;;;14.60;99.90;;;14.01;100.00;96512.28;10524630;28;1647;-74
2022/10/19 05:11:14;;;;;;;;;;;14.70;99.90;;;13.94;100.00;96509.06;10533935;28;1968;-73
2022/10/19 05:16:17;;;;;;;;;;;14.80;99.90;;;13.97;100.00;96505.78;10556024;28;1198;-74
2022/10/19 05:21:20;;;;;;;;;;;14.60;99.90;;;13.91;100.00;96504.19;10538311;28;1702;-76
2022/10/19 05:26:23;;;;;;;;;;;14.60;99.90;;;13.96;100.00;96506.88;10534372;28;1726;-73
2022/10/19 05:31:26;;;;;;;;;;;14.80;99.90;;;14.14;100.00;96501.94;10499504;28;1909;-73
2022/10/19 05:36:31;;;;;;;;;;;14.80;99.90;;;14.03;100.00;96499.28;10535098;28;1438;-72
2022/10/19 05:41:33;;;;;;;;;;;14.90;99.90;;;13.91;100.00;96506.09;10539158;28;1667;-73
2022/10/19 05:46:36;;;;;;;;;;;14.80;99.90;;;14.02;100.00;96504.97;10539790;28;1112;-73
2022/10/19 05:51:39;;;;;;;;;;;14.80;99.90;;;14.09;100.00;96508.19;10536006;28;1910;-72
2022/10/19 05:56:42;;;;;;;;;;;14.80;99.90;;;14.07;100.00;96519.28;10529685;28;1438;-73
2022/10/19 06:01:44;;;;;;;;;;;14.90;99.90;;;14.16;100.00;96519.50;10519737;28;1117;-72
2022/10/19 06:06:47;;;;;;;;;;;14.90;99.90;;;14.38;100.00;96513.72;10534481;28;1707;-74
2022/10/19 06:11:50;;;;;;;;;;;15.00;99.90;;;14.44;100.00;96518.00;10536116;28;1914;-76
2022/10/19 06:16:53;;;;;;;;;;;15.10;99.90;;;14.58;100.00;96519.03;10537130;28;1263;-77
2022/10/19 06:21:55;;;;;;;;;;;15.20;99.90;;;14.58;100.00;96518.22;10534410;28;1644;-75
2022/10/19 06:26:58;;;;;;;;;;;15.30;99.90;;;14.44;100.00;96526.13;10528322;28;1675;-73
2022/10/19 06:32:01;;;;;;;;;;;15.20;99.90;;;14.29;100.00;96528.88;10496711;28;1973;-74
2022/10/19 06:37:04;;;;;;;;;;;15.10;99.90;;;14.20;100.00;96535.97;10537936;28;1687;-74
2022/10/19 06:42:08;;;;;;;;;;;15.10;99.90;;;14.20;100.00;96542.19;10533685;28;1569;-75
2022/10/19 06:47:11;;;;;;;;;;;15.00;99.90;;;14.17;100.00;96550.84;10535823;28;1142;-73
2022/10/19 06:52:14;;;;;;;;;;;14.90;99.90;;;14.09;100.00;96547.91;10534297;28;1910;-75
2022/10/19 06:57:16;;;;;;;;;;;14.90;99.90;;;14.12;100.00;96556.28;10527652;28;1431;-74
2022/10/19 07:02:19;;;;;;;;;;;14.90;99.90;;;14.15;100.00;96554.94;10513127;28;1413;-73
2022/10/19 07:07:22;;;;;;;;;;;15.00;99.90;;;14.07;100.00;96549.00;10536401;28;1140;-71
2022/10/19 07:12:25;;;;;;;;;;;14.90;99.90;;;14.32;100.00;96558.09;10530614;28;1973;-74
2022/10/19 07:17:28;;;;;;;;;;;15.00;99.90;;;14.40;100.00;96554.00;10535429;28;970;-72
2022/10/19 07:22:31;;;;;;;;;;;15.00;99.90;;;14.24;100.00;96550.53;10531159;28;1656;-72
2022/10/19 07:27:35;;;;;;;;;;;15.00;99.90;;;14.21;100.00;96556.53;10519823;28;1636;-74
2022/10/19 07:32:40;;;;;;;;;;;15.00;99.90;;;14.21;100.00;96551.13;10499366;28;1910;-72
2022/10/19 07:37:48;;;;;;;;;;;15.00;99.90;;;14.05;100.00;96539.53;10558089;27;1656;-74
2022/10/19 07:42:51;;;;;;;;;;;15.00;99.90;;;14.08;100.00;96552.53;10530660;28;1684;-73
2022/10/19 07:47:54;;;;;;;;;;;14.90;99.90;;;14.04;100.00;96551.44;10535209;28;1172;-72
2022/10/19 07:52:56;;;;;;;;;;;15.00;99.90;;;14.14;100.00;96550.59;10533353;28;1966;-74
2022/10/19 07:58:00;;;;;;;;;;;15.00;99.90;;;14.15;100.00;96552.22;10526580;28;1648;-74
2022/10/19 08:03:04;;;;;;;;;;;14.90;99.90;;;14.45;100.00;96562.91;10515706;28;1540;-73
2022/10/19 08:08:27;;;;;;;;;;;15.10;99.90;;;14.44;100.00;96553.16;10528117;28;1114;-73
2022/10/19 08:13:29;;;;;;;;;;;15.20;99.90;;;14.33;100.00;96555.09;10528463;28;1969;-74
2022/10/19 08:18:32;;;;;;;;;;;15.20;99.90;;;14.55;100.00;96562.03;10535296;28;1334;-74
2022/10/19 08:23:35;;;;;;;;;;;15.20;99.90;;;14.93;100.00;96563.16;10535299;28;1601;-73
2022/10/19 08:28:38;;;;;;;;;;;15.40;99.90;;;15.00;100.00;96552.81;10509439;28;1786;-73
2022/10/19 08:33:41;;;;;;;;;;;15.50;99.90;;;14.93;100.00;96557.75;10498353;28;1906;-74
2022/10/19 08:38:44;;;;;;;;;;;15.60;99.90;;;14.82;100.00;96557.03;10534605;28;1458;-73
2022/10/19 08:43:47;;;;;;;;;;;15.60;99.90;;;14.72;100.00;96559.78;10536220;28;1703;-72
2022/10/19 08:48:50;;;;;;;;;;;15.50;99.90;;;14.60;100.00;96560.13;10533673;28;1557;-72
2022/10/19 08:53:56;;;;;;;;;;;15.50;99.90;;;14.70;100.00;96544.94;10540448;28;1973;-72
2022/10/19 08:58:59;;;;;;;;;;;15.50;99.90;;;14.53;100.00;96553.41;10532733;28;1220;-74
2022/10/19 09:04:02;;;;;;;;;;;15.40;99.90;;;14.71;100.00;96552.75;10534096;28;1711;-77
2022/10/19 09:09:05;;;;;;;;;;;15.50;99.90;;;15.02;100.00;96547.94;10541354;28;1179;-77
2022/10/19 09:14:07;;;;;;;;;;;15.60;99.90;;;15.11;100.00;96545.41;10533800;28;1979;-75
2022/10/19 09:19:10;;;;;;;;;;;15.90;99.90;;;15.30;100.00;96542.81;10540575;28;1171;-73
2022/10/19 09:24:14;;;;;;;;;;;15.90;99.90;;;15.20;100.00;96545.59;10534342;28;1836;-72
2022/10/19 09:29:17;;;;;;;;;;;16.00;99.90;;;14.88;100.00;96545.03;10516552;28;1169;-74
2022/10/19 09:34:20;;;;;;;;;;;15.80;99.90;;;15.36;100.00;96541.69;10519714;28;1917;-73
2022/10/19 09:39:23;;;;;;;;;;;15.90;99.90;;;15.23;100.00;96540.44;10538802;28;1253;-73
2022/10/19 09:44:30;;;;;;;;;;;16.00;99.90;;;15.61;100.00;96543.34;10537649;28;1688;-75
2022/10/19 09:49:33;;;;;;;;;;;16.30;99.90;;;15.94;100.00;96536.22;10541358;28;1668;-74
2022/10/19 09:54:36;;;;;;;;;;;16.50;99.90;;;15.73;100.00;96537.56;10540113;28;1980;-78
2022/10/19 09:59:39;;;;;;;;;;;16.60;99.90;;;15.62;100.00;96543.09;10563645;27;1151;-76
2022/10/19 10:04:42;;;;;;;;;;;16.50;99.90;;;15.93;100.00;96535.44;10538663;28;1620;-74
2022/10/19 10:09:45;;;;;;;;;;;16.60;99.90;;;15.83;100.00;96535.53;10539866;28;1134;-73
2022/10/19 10:14:48;;;;;;;;;;;16.70;99.90;;;16.10;100.00;96532.25;10532213;28;1914;-74
2022/10/19 10:19:51;;;;;;;;;;;16.80;99.90;;;16.18;100.00;96528.88;10538286;28;1149;-72
2022/10/19 10:24:53;;;;;;;;;;;16.90;99.90;;;16.38;100.00;96535.16;10525448;28;1608;-73
2022/10/19 10:29:57;;;;;;;;;;;17.00;99.90;;;16.52;100.00;96536.03;10505946;28;1238;-73
2022/10/19 10:35:00;;;;;;;;;;;17.10;99.90;;;16.01;100.00;96523.13;10519539;28;2003;-73
2022/10/19 10:40:03;;;;;;;;;;;17.10;99.90;;;16.45;100.00;96511.97;10538400;28;1082;-73
2022/10/19 10:45:06;;;;;;;;;;;17.10;99.90;;;16.38;100.00;96514.25;10534226;28;1636;-72
2022/10/19 10:50:09;;;;;;;;;;;17.20;99.90;;;16.44;100.00;96518.50;10523510;28;1580;-73
2022/10/19 10:55:12;;;;;;;;;;;17.10;99.90;;;16.40;100.00;96509.31;10535237;28;1986;-72
2022/10/19 11:00:15;;;;;;;;;;;17.20;99.90;;;16.48;100.00;96507.88;10522411;28;1177;-73
2022/10/19 11:05:17;;;;;;;;;;;17.20;99.90;;;16.27;100.00;96498.41;10502008;28;1722;-73
2022/10/19 11:10:21;;;;;;;;;;;17.20;99.90;;;16.16;100.00;96493.13;10527974;28;1204;-73
2022/10/19 11:15:23;;;;;;;;;;;17.10;99.90;;;16.28;100.00;96484.53;10533694;28;1979;-75
2022/10/19 11:20:26;;;;;;;;;;;17.00;99.90;;;16.31;100.00;96483.97;10535958;28;797;-73
2022/10/19 11:25:29;;;;;;;;;;;17.00;99.90;;;16.02;100.00;96481.34;10521185;28;1696;-73
2022/10/19 11:30:32;;;;;;;;;;;16.90;99.90;;;16.23;100.00;96475.69;10500969;28;1188;-73
2022/10/19 11:35:35;;;;;;;;;;;16.90;99.90;;;16.42;100.00;96468.34;10516109;28;1914;-75
2022/10/19 11:40:39;;;;;;;;;;;17.00;99.90;;;16.17;100.00;96464.09;10535557;28;1278;-73
2022/10/19 11:46:02;;;;;;;;;;;17.00;99.90;;;16.64;100.00;96454.16;10527597;28;1703;-73
2022/10/19 11:51:04;;;;;;;;;;;17.20;99.90;;;16.41;100.00;96445.00;10535105;28;1695;-72
2022/10/19 11:56:22;;;;;;;;;;;17.40;99.90;;;16.43;100.00;96442.81;10517974;28;1917;-73
2022/10/19 12:01:40;;;;;;;;;;;17.30;99.90;;;16.19;100.00;96432.03;10517629;28;1133;-74
2022/10/19 12:06:44;;;;;;;;;;;17.10;99.90;;;16.39;100.00;96428.22;10513318;28;1680;-73
2022/10/19 12:11:47;;;;;;;;;;;17.10;99.90;;;16.55;100.00;96413.31;10535662;28;1917;-73
2022/10/19 12:16:50;;;;;;;;;;;17.20;99.90;;;16.54;100.00;96410.88;10536602;28;1668;-73
2022/10/19 12:21:53;;;;;;;;;;;17.30;99.90;;;16.38;100.00;96408.44;10547966;28;1660;-72
2022/10/19 12:26:55;;;;;;;;;;;17.30;99.90;;;16.32;100.00;96398.75;10522738;28;1469;-72
2022/10/19 12:31:58;;;;;;;;;;;17.20;99.90;;;15.97;100.00;96397.38;10505916;28;1918;-73
2022/10/19 12:37:01;;;;;;;;;;;17.10;99.90;;;16.07;100.00;96383.66;10542297;28;1242;-73
2022/10/19 12:42:09;;;;;;;;;;;17.00;99.90;;;16.24;100.00;96379.63;10536590;28;1623;-74
2022/10/19 12:47:30;;;;;;;;;;;16.90;99.90;;;16.62;100.00;96374.94;10541814;28;1474;-74
2022/10/19 12:53:26;;;;;;;;;;;17.20;99.90;;;16.74;100.00;96367.97;10536780;28;1966;-73
2022/10/19 12:58:29;;;;;;;;;;;17.40;99.90;;;16.71;100.00;96363.13;10532986;28;1738;-74
2022/10/19 13:03:32;;;;;;;;;;;17.50;99.90;;;16.66;100.00;96360.47;10518297;28;1485;-73
2022/10/19 13:08:35;;;;;;;;;;;17.60;99.90;;;16.93;100.00;96354.34;10540305;28;1473;-74
2022/10/19 13:13:38;;;;;;;;;;;17.60;99.90;;;16.91;100.00;96350.28;10535315;28;1914;-72
2022/10/19 13:18:41;;;;;;;;;;;17.70;99.90;;;16.54;100.00;96346.59;10541477;28;1459;-73
2022/10/19 13:23:47;;;;;;;;;;;17.60;99.90;;;16.48;100.00;96347.78;10539776;28;1679;-74
2022/10/19 13:28:49;;;;;;;;;;;17.40;99.90;;;16.50;100.00;96351.00;10517355;28;1166;-73
2022/10/19 13:33:52;;;;;;;;;;;17.30;99.90;;;16.10;100.00;96342.41;10511034;28;1977;-74
2022/10/19 13:38:55;;;;;;;;;;;17.20;99.90;;;16.05;100.00;96328.13;10544513;28;1169;-74
2022/10/19 13:43:57;;;;;;;;;;;17.00;99.90;;;16.53;100.00;96328.66;10542627;28;1652;-73
2022/10/19 13:49:01;;;;;;;;;;;17.10;99.90;;;16.88;100.00;96323.75;10540325;28;891;-72
2022/10/19 13:54:04;;;;;;;;;;;17.30;99.90;;;17.22;100.00;96315.19;10537662;28;1977;-73
2022/10/19 13:59:07;;;;;;;;;;;17.70;99.90;;;17.67;100.00;96316.16;10529607;28;1492;-73
2022/10/19 14:04:10;;;;;;;;;;;18.10;99.90;;;17.63;100.00;96306.22;10516041;28;1529;-72
2022/10/19 14:09:13;;;;;;;;;;;18.20;99.90;;;17.56;100.00;96290.31;10539033;28;1219;-72
2022/10/19 14:14:16;;;;;;;;;;;18.20;99.90;;;17.33;100.00;96294.88;10533271;28;1922;-73
2022/10/19 14:19:19;;;;;;;;;;;18.10;99.90;;;16.80;100.00;96292.69;10532765;28;1577;-73
2022/10/19 14:24:22;;;;;;;;;;;17.90;99.90;;;16.71;100.00;96292.56;10537388;28;1525;-74
2022/10/19 14:29:35;;;;;;;;;;;17.60;99.90;;;16.57;100.00;96280.03;10510815;28;1191;-78
2022/10/19 14:34:38;;;;;;;;;;;17.40;99.90;;;16.55;100.00;96288.50;10517986;28;1982;-72
2022/10/19 14:39:40;;;;;;;;;;;17.40;99.90;;;16.41;100.00;96282.22;10537870;28;1376;-72
2022/10/19 14:44:43;;;;;;;;;;;17.20;99.90;;;16.39;100.00;96279.00;10530890;28;1668;-72
2022/10/19 14:49:46;;;;;;;;;;;17.20;99.90;;;16.24;100.00;96276.56;10536455;28;1730;-72
2022/10/19 14:54:49;;;;;;;;;;;17.20;99.90;;;16.10;100.00;96277.31;10535316;28;1975;-73
2022/10/19 14:59:51;;;;;;;;;;;17.00;99.90;;;16.13;100.00;96265.06;10525759;28;1169;-74
2022/10/19 15:04:54;;;;;;;;;;;16.90;99.90;;;15.73;100.00;96261.09;10500780;28;1668;-73
2022/10/19 15:09:57;;;;;;;;;;;16.80;99.90;;;15.50;100.00;96268.97;10537383;28;1129;-73
2022/10/19 15:15:00;;;;;;;;;;;16.60;99.90;;;15.45;100.00;96265.53;10528452;28;1991;-74
2022/10/19 15:20:03;;;;;;;;;;;16.40;99.90;;;15.36;100.00;96265.38;10542207;28;892;-73
2022/10/19 15:25:06;;;;;;;;;;;16.30;99.90;;;15.31;100.00;96265.44;10534386;28;1620;-73
2022/10/19 15:30:14;;;;;;;;;;;16.20;99.90;;;15.35;100.00;96271.91;10506145;28;1085;-72
2022/10/19 15:35:17;;;;;;;;;;;16.20;99.90;;;15.45;100.00;96265.53;10525714;28;1981;-72
2022/10/19 15:40:20;;;;;;;;;;;16.30;99.90;;;15.44;100.00;96248.47;10536340;28;1138;-72
2022/10/19 15:45:23;;;;;;;;;;;16.30;99.90;;;15.33;100.00;96238.88;10535412;28;1655;-73
2022/10/19 15:50:25;;;;;;;;;;;16.20;99.90;;;15.24;100.00;96251.47;10534663;28;1671;-73
2022/10/19 15:55:28;;;;;;;;;;;16.10;99.90;;;15.18;100.00;96247.22;10533304;28;1971;-74
2022/10/19 16:00:31;;;;;;;;;;;16.10;99.90;;;15.14;100.00;96246.97;10519984;28;1110;-74
2022/10/19 16:05:34;;;;;;;;;;;16.10;99.90;;;15.11;100.00;96244.88;10521199;28;1727;-71
2022/10/19 16:10:37;;;;;;;;;;;16.50;99.90;;;15.04;100.00;96245.22;10533521;28;1675;-72
2022/10/19 16:15:39;;;;;;;;;;;16.00;99.90;;;15.03;100.00;96237.41;10528914;28;1973;-73
2022/10/19 16:20:42;;;;;;;;;;;16.00;99.90;;;15.00;100.00;96243.38;10533594;28;1667;-73
2022/10/19 16:25:45;;;;;;;;;;;15.90;99.90;;;14.95;100.00;96236.13;10534610;28;1525;-73
2022/10/19 16:30:48;;;;;;;;;;;15.80;99.90;;;14.90;100.00;96238.91;10498828;28;1117;-73
2022/10/19 16:35:51;;;;;;;;;;;15.80;99.90;;;14.81;100.00;96246.03;10525921;28;1957;-76
2022/10/19 16:40:54;;;;;;;;;;;15.90;99.90;;;14.71;100.00;96246.97;10532874;28;1671;-79
2022/10/19 16:45:57;;;;;;;;;;;15.70;99.90;;;14.60;100.00;96243.56;10533344;28;1117;-74
2022/10/19 16:51:05;;;;;;;;;;;15.60;99.90;;;14.46;100.00;96258.88;10530740;28;1628;-73
2022/10/19 16:56:08;;;;;;;;;;;15.40;99.90;;;14.21;100.00;96259.09;10525878;28;1980;-73
2022/10/19 17:01:11;;;;;;;;;;;15.30;99.90;;;14.06;100.00;96258.16;10517189;28;2052;-73
2022/10/19 17:06:14;;;;;;;;;;;15.10;99.90;;;13.93;100.00;96264.19;10533875;28;1608;-73
2022/10/19 17:11:17;;;;;;;;;;;14.90;99.90;;;13.74;100.00;96265.94;10542229;28;1098;-73
2022/10/19 17:16:19;;;;;;;;;;;14.70;99.90;;;13.56;100.00;96261.22;10539467;28;1926;-73
2022/10/19 17:21:22;;;;;;;;;;;14.60;99.90;;;13.38;100.00;96260.78;10533123;28;1687;-73
2022/10/19 17:26:25;;;;;;;;;;;14.50;99.90;;;13.27;100.00;96266.53;10537672;28;1470;-74
2022/10/19 17:31:34;;;;;;;;;;;14.30;99.90;;;13.14;100.00;96257.13;10498011;28;994;-72
2022/10/19 17:36:37;;;;;;;;;;;14.10;99.90;;;12.98;100.00;96257.19;10536801;28;1921;-73
2022/10/19 17:41:39;;;;;;;;;;;14.10;99.90;;;12.85;100.00;96260.50;10537140;28;1632;-73
2022/10/19 17:46:42;;;;;;;;;;;13.90;99.90;;;12.81;100.00;96266.72;10539010;28;1120;-74
2022/10/19 17:51:45;;;;;;;;;;;13.80;99.90;;;12.85;100.00;96255.09;10534128;28;1667;-73
2022/10/19 17:56:48;;;;;;;;;;;13.80;99.90;;;12.84;100.00;96248.06;10530070;28;1977;-74
2022/10/19 18:01:50;;;;;;;;;;;13.70;99.90;;;12.76;100.00;96248.63;10519961;28;1474;-74
2022/10/19 18:06:53;;;;;;;;;;;13.70;99.90;;;12.52;100.00;96253.03;10534753;28;1019;-72
2022/10/19 18:11:56;;;;;;;;;;;13.60;99.90;;;12.40;100.00;96259.53;10531759;28;1663;-74
2022/10/19 18:16:59;;;;;;;;;;;13.50;99.90;;;12.29;100.00;96252.56;10537611;28;1980;-73
2022/10/19 18:22:02;;;;;;;;;;;13.30;99.90;;;12.12;100.00;96258.22;10536261;28;1722;-74
2022/10/19 18:27:05;;;;;;;;;;;13.20;99.90;;;12.09;100.00;96252.59;10526751;28;1651;-72
2022/10/19 18:32:08;;;;;;;;;;;13.10;99.90;;;12.03;100.00;96251.78;10498314;28;1668;-72
2022/10/19 18:37:11;;;;;;;;;;;13.10;99.90;;;11.92;100.00;96258.25;10538383;28;1914;-74
2022/10/19 18:42:15;;;;;;;;;;;13.00;99.90;;;11.83;100.00;96270.63;10536612;28;1735;-74
2022/10/19 18:47:18;;;;;;;;;;;12.90;99.90;;;11.78;100.00;96270.63;10536408;28;2381;-74
2022/10/19 18:52:21;;;;;;;;;;;12.80;99.90;;;11.74;100.00;96258.75;10537629;28;1640;-72
2022/10/19 18:57:24;;;;;;;;;;;12.80;99.90;;;11.66;100.00;96262.78;10536274;28;1914;-72
2022/10/19 19:02:33;;;;;;;;;;;12.70;99.90;;;11.57;100.00;96257.09;10533131;28;1549;-72
2022/10/19 19:07:48;;;;;;;;;;;12.60;99.90;;;11.47;100.00;96248.25;10538566;28;1132;-73
2022/10/19 19:12:51;;;;;;;;;;;;;;;11.44;100.00;96251.44;10536415;28;1545;-73
2022/10/19 19:17:54;;;;;;;;;;;;;;;11.45;100.00;96250.38;10538258;28;1921;-74
2022/10/19 19:22:58;;;;;;;;;;;;;;;11.41;100.00;96242.03;10531361;28;1651;-73
2022/10/19 19:28:01;;;;;;;;;;;;;;;11.49;100.00;96238.00;10518746;28;1635;-74
2022/10/19 19:33:05;;;;;;;;;;;;;;;11.51;100.00;96231.25;10503842;28;1138;-73
2022/10/19 19:38:08;;;;;;;;;;;;;;;11.51;100.00;96225.06;10526578;28;1913;-72
2022/10/19 19:43:11;;;;;;;;;;;;;;;11.44;100.00;96225.34;10530951;28;1672;-73
2022/10/19 19:48:15;;;;;;;;;;;;;;;11.24;100.00;96219.94;10535656;28;1102;-72
2022/10/19 19:53:19;;;;;;;;;;;;;;;11.01;100.00;96227.44;10532896;28;1834;-72
2022/10/19 19:58:21;;;;;;;;;;;12.10;99.90;;;10.97;100.00;96236.28;10535516;28;2025;-73
2022/10/19 20:03:24;;;;;;;;;;;12.00;99.90;;;10.88;100.00;96227.09;10530294;28;1415;-72
2022/10/19 20:08:27;;;;;;;;;;;11.90;99.90;;;10.76;100.00;96230.84;10536693;28;1144;-75
2022/10/19 20:13:30;;;;;;;;;;;12.10;99.90;;;10.76;100.00;96225.47;10534500;28;1489;-76
2022/10/19 20:18:33;;;;;;;;;;;;;;;10.59;100.00;96222.16;10533477;28;1980;-76
2022/10/19 20:23:37;;;;;;;;;;;11.50;99.90;;;10.53;100.00;96221.31;10527762;28;1549;-72
2022/10/19 20:28:40;;;;;;;;;;;11.50;99.90;;;10.44;100.00;96212.16;10511413;28;1640;-75
2022/10/19 20:33:43;;;;;;;;;;;11.50;99.90;;;10.47;100.00;96213.50;10507183;28;1967;-73
2022/10/19 20:38:46;;;;;;;;;;;11.50;99.90;;;10.37;100.00;96210.75;10539204;28;1030;-72
2022/10/19 20:43:49;;;;;;;;;;;11.50;99.90;;;10.34;100.00;96213.97;10541839;28;1706;-74
2022/10/19 20:48:51;;;;;;;;;;;11.40;99.90;;;10.25;100.00;96208.28;10545452;28;1132;-75
2022/10/19 20:53:54;;;;;;;;;;;11.40;99.90;;;10.16;100.00;96213.31;10537500;28;1902;-78
2022/10/19 20:58:57;;;;;;;;;;;11.20;99.90;;;10.19;100.00;96207.44;10541808;28;1157;-73
2022/10/19 21:04:00;;;;;;;;;;;11.20;99.90;;;10.14;100.00;96199.34;10532463;28;1526;-73
2022/10/19 21:09:03;;;;;;;;;;;11.20;99.90;;;10.14;100.00;96204.69;10540935;28;1116;-74
2022/10/19 21:14:06;;;;;;;;;;;11.20;99.90;;;10.01;100.00;96197.91;10541933;28;1909;-73
2022/10/19 21:19:09;;;;;;;;;;;11.10;99.90;;;9.92;100.00;96193.28;10540920;28;956;-73
2022/10/19 21:24:12;;;;;;;;;;;11.00;99.90;;;9.96;100.00;96197.88;10527647;28;1643;-72
2022/10/19 21:29:15;;;;;;;;;;;11.40;99.90;;;9.87;100.00;96195.94;10515478;28;1106;-73
2022/10/19 21:34:17;;;;;;;;;;;10.80;99.90;;;9.89;100.00;96191.13;10516614;28;1985;-73
2022/10/19 21:39:20;;;;;;;;;;;10.90;99.90;;;9.87;100.00;96183.31;10498566;28;1070;-72
2022/10/19 21:44:23;;;;;;;;;;;10.80;99.90;;;9.82;100.00;96182.47;10515892;28;1667;-73
2022/10/19 21:49:26;;;;;;;;;;;10.90;99.90;;;9.73;100.00;96184.81;10540171;28;991;-73
2022/10/19 21:54:29;;;;;;;;;;;10.80;99.90;;;9.79;100.00;96174.94;10537933;28;1901;-72
2022/10/19 21:59:32;;;;;;;;;;;10.80;99.90;;;9.63;100.00;96182.88;10539742;28;1192;-72
2022/10/19 22:04:35;;;;;;;;;;;10.70;99.90;;;9.65;100.00;96172.69;10538994;28;1672;-74
2022/10/19 22:09:38;;;;;;;;;;;10.80;99.90;;;9.64;100.00;96165.72;10538836;28;1007;-71
2022/10/19 22:14:43;;;;;;;;;;;10.70;99.90;;;9.52;100.00;96162.41;10534963;28;1984;-73
2022/10/19 22:19:46;;;;;;;;;;;10.60;99.90;;;9.53;100.00;96152.47;10534831;28;1818;-73
2022/10/19 22:24:49;;;;;;;;;;;10.50;99.90;;;9.46;100.00;96148.13;10529416;28;1537;-73
2022/10/19 22:29:52;;;;;;;;;;;10.60;99.90;;;9.57;100.00;96143.66;10508369;28;1136;-75
2022/10/19 22:35:04;;;;;;;;;;;10.50;99.90;;;9.58;100.00;96134.53;10520751;28;1914;-73
2022/10/19 22:40:07;;;;;;;;;;;10.50;99.90;;;9.52;100.00;96113.28;10537726;28;1112;-73
2022/10/19 22:45:10;;;;;;;;;;;10.50;99.90;;;9.51;100.00;96107.13;10533637;28;1751;-72
2022/10/19 22:50:13;;;;;;;;;;;10.40;99.90;;;9.43;100.00;96099.56;10537389;28;1086;-72
2022/10/19 22:55:15;;;;;;;;;;;10.40;99.90;;;9.44;100.00;96106.53;10531290;28;1922;-73
2022/10/19 23:00:18;;;;;;;;;;;10.40;99.90;;;9.39;100.00;96109.19;10536032;28;1180;-72
2022/10/19 23:05:31;;;;;;;;;;;10.40;99.90;;;9.38;100.00;96123.66;10532228;28;1568;-73